This is the latest recevied weather packets stored in our database for station/object KB1JLI. If no packets are shown the sender has not sent any weather packets the latest 10 day(s).
| Time | Temp. | Humidity | Pressure | Rain* | Wind** | Luminosity | Snow |
|---|---|---|---|---|---|---|---|
| 1777435869 | 7.22° C | 76% | 1019.5 hPa | 0 mm | - | 0 W/m² | - |
| 1777434350 | 7.22° C | 77% | 1019.6 hPa | 0 mm | - | 0 W/m² | - |
| 1777431012 | 6.67° C | 79% | 1020 hPa | 0 mm | - | 0 W/m² | - |
| 1777429491 | 6.67° C | 80% | 1020.5 hPa | 0 mm | - | 0 W/m² | - |
| 1777424934 | 6.67° C | 81% | 1020.9 hPa | 0 mm | - | 0 W/m² | - |
| 1777424629 | 6.67° C | 80% | 1020.9 hPa | 0 mm | - | 0 W/m² | - |
| 1777424020 | 6.67° C | 80% | 1020.8 hPa | 0 mm | - | 0 W/m² | - |
| 1777423717 | 6.67° C | 79% | 1020.7 hPa | 0 mm | - | 0 W/m² | - |
| 1777423113 | 6.67° C | 79% | 1020.9 hPa | 0 mm | - | 0 W/m² | - |
| 1777422808 | 6.67° C | 79% | 1020.9 hPa | 0 mm | - | 0 W/m² | - |
| 1777422505 | 6.67° C | 79% | 1020.9 hPa | 0 mm | - | 0 W/m² | - |
| 1777422200 | 6.67° C | 79% | 1020.9 hPa | 0 mm | - | 0 W/m² | - |
| 1777421290 | 6.67° C | 77% | 1020.8 hPa | 0 mm | - | 0 W/m² | - |
| 1777418870 | 7.78° C | 72% | 1020.9 hPa | 0 mm | - | 6 W/m² | - |
| 1777416134 | 8.89° C | 59% | 1021.1 hPa | 0 mm | - | 30 W/m² | - |
| 1777412178 | 10.56° C | 38% | 1021.5 hPa | 0 mm | - | 39 W/m² | - |
| 1777411269 | 11.11° C | 35% | 1021.4 hPa | 0 mm | - | 43 W/m² | - |
| 1777410664 | 11.67° C | 33% | 1021.7 hPa | 0 mm | - | 48 W/m² | - |
| 1777410357 | 11.67° C | 32% | 1021.6 hPa | 0 mm | - | 60 W/m² | - |
| 1777410051 | 11.67° C | 31% | 1021.7 hPa | 0 mm | - | 56 W/m² | - |
| 1777409745 | 11.67° C | 31% | 1021.6 hPa | 0 mm | - | 57 W/m² | - |
| 1777409442 | 12.22° C | 30% | 1021.8 hPa | 0 mm | - | 53 W/m² | - |
| 1777409138 | 12.22° C | 28% | 1021.9 hPa | 0 mm | - | 46 W/m² | - |
| 1777408530 | 12.78° C | 32% | 1021.7 hPa | 0 mm | - | 53 W/m² | - |
| 1777408230 | 12.78° C | 28% | 1021.5 hPa | 0 mm | - | 68 W/m² | - |
* Rain latest hour (hover to see other rain measurements)
** Current wind speed in m/s (hover to see current wind gust speed)